sensor_id;sensor_type;location;lat;lon;timestamp;pressure;altitude;pressure_sealevel;temperature;humidity
71107;BME280;58763;47.982;11.516;2023-06-22T00:02:18;94236.69;;;22.72;60.23
71107;BME280;58763;47.982;11.516;2023-06-22T00:04:44;94225.13;;;22.66;60.08
71107;BME280;58763;47.982;11.516;2023-06-22T00:07:10;94216.44;;;22.64;60.45
71107;BME280;58763;47.982;11.516;2023-06-22T00:09:35;94214.38;;;22.61;60.47
71107;BME280;58763;47.982;11.516;2023-06-22T00:12:01;94209.16;;;22.56;60.39
71107;BME280;58763;47.982;11.516;2023-06-22T00:14:27;94216.06;;;22.50;60.56
71107;BME280;58763;47.982;11.516;2023-06-22T00:16:52;94219.19;;;22.49;60.87
71107;BME280;58763;47.982;11.516;2023-06-22T00:19:23;94219.09;;;22.45;60.59
71107;BME280;58763;47.982;11.516;2023-06-22T00:21:50;94223.75;;;22.41;60.66
71107;BME280;58763;47.982;11.516;2023-06-22T00:24:21;94219.56;;;22.32;61.00
71107;BME280;58763;47.982;11.516;2023-06-22T00:26:50;94211.03;;;22.37;61.19
71107;BME280;58763;47.982;11.516;2023-06-22T00:29:15;94212.28;;;22.39;60.95
71107;BME280;58763;47.982;11.516;2023-06-22T00:31:41;94212.56;;;22.34;61.19
71107;BME280;58763;47.982;11.516;2023-06-22T00:34:06;94214.00;;;22.28;61.54
71107;BME280;58763;47.982;11.516;2023-06-22T00:36:34;94214.00;;;22.28;61.56
71107;BME280;58763;47.982;11.516;2023-06-22T00:39:00;94221.38;;;22.24;62.02
71107;BME280;58763;47.982;11.516;2023-06-22T00:41:26;94220.22;;;22.25;61.92
71107;BME280;58763;47.982;11.516;2023-06-22T00:43:54;94218.44;;;22.17;61.85
71107;BME280;58763;47.982;11.516;2023-06-22T00:46:20;94209.75;;;22.15;61.64
71107;BME280;58763;47.982;11.516;2023-06-22T00:48:46;94208.31;;;22.06;61.96
71107;BME280;58763;47.982;11.516;2023-06-22T00:51:12;94200.88;;;22.06;61.89
71107;BME280;58763;47.982;11.516;2023-06-22T00:53:37;94202.03;;;22.05;62.11
71107;BME280;58763;47.982;11.516;2023-06-22T00:56:04;94200.78;;;22.02;62.09
71107;BME280;58763;47.982;11.516;2023-06-22T00:58:31;94203.63;;;21.90;62.58
71107;BME280;58763;47.982;11.516;2023-06-22T01:00:56;94207.09;;;21.87;63.03
71107;BME280;58763;47.982;11.516;2023-06-22T01:03:22;94193.47;;;21.79;63.03
71107;BME280;58763;47.982;11.516;2023-06-22T01:05:48;94207.06;;;21.72;64.44
71107;BME280;58763;47.982;11.516;2023-06-22T01:08:31;94200.88;;;21.75;64.93
71107;BME280;58763;47.982;11.516;2023-06-22T01:11:16;94192.25;;;21.76;64.77
71107;BME280;58763;47.982;11.516;2023-06-22T01:13:50;94197.81;;;21.64;65.66
71107;BME280;58763;47.982;11.516;2023-06-22T01:16:23;94188.13;;;21.55;65.98
71107;BME280;58763;47.982;11.516;2023-06-22T01:18:52;94184.75;;;21.46;66.63
71107;BME280;58763;47.982;11.516;2023-06-22T01:21:21;94188.31;;;21.46;67.20
71107;BME280;58763;47.982;11.516;2023-06-22T01:26:40;94171.75;;;21.15;69.32
71107;BME280;58763;47.982;11.516;2023-06-22T01:29:08;94168.25;;;21.02;70.77
71107;BME280;58763;47.982;11.516;2023-06-22T01:31:38;94168.81;;;20.96;70.76
71107;BME280;58763;47.982;11.516;2023-06-22T01:34:06;94171.53;;;20.80;72.10
71107;BME280;58763;47.982;11.516;2023-06-22T01:36:32;94155.25;;;20.87;72.32
71107;BME280;58763;47.982;11.516;2023-06-22T01:38:58;94158.34;;;20.86;72.21
71107;BME280;58763;47.982;11.516;2023-06-22T01:41:29;94158.28;;;20.70;73.02
71107;BME280;58763;47.982;11.516;2023-06-22T01:43:55;94160.38;;;20.61;72.86
71107;BME280;58763;47.982;11.516;2023-06-22T01:46:21;94152.34;;;20.68;72.72
71107;BME280;58763;47.982;11.516;2023-06-22T01:48:48;94155.28;;;20.75;72.28
71107;BME280;58763;47.982;11.516;2023-06-22T01:51:13;94158.28;;;20.70;72.91
71107;BME280;58763;47.982;11.516;2023-06-22T01:53:39;94163.53;;;20.75;71.89
71107;BME280;58763;47.982;11.516;2023-06-22T01:56:04;94152.31;;;20.80;71.75
71107;BME280;58763;47.982;11.516;2023-06-22T01:58:31;94160.06;;;20.90;71.27
71107;BME280;58763;47.982;11.516;2023-06-22T02:01:09;94163.44;;;20.99;70.61
71107;BME280;58763;47.982;11.516;2023-06-22T02:03:41;94164.81;;;21.05;70.36
71107;BME280;58763;47.982;11.516;2023-06-22T02:06:17;94159.78;;;21.07;70.09
71107;BME280;58763;47.982;11.516;2023-06-22T02:08:56;94167.41;;;21.14;69.74
71107;BME280;58763;47.982;11.516;2023-06-22T02:11:22;94165.00;;;21.12;69.58
71107;BME280;58763;47.982;11.516;2023-06-22T02:13:51;94162.97;;;21.09;68.80
71107;BME280;58763;47.982;11.516;2023-06-22T02:16:17;94161.81;;;21.10;68.95
71107;BME280;58763;47.982;11.516;2023-06-22T02:18:47;94169.38;;;21.13;68.86
71107;BME280;58763;47.982;11.516;2023-06-22T02:21:16;94160.41;;;21.16;68.80
71107;BME280;58763;47.982;11.516;2023-06-22T02:23:41;94172.56;;;21.15;68.76
71107;BME280;58763;47.982;11.516;2023-06-22T02:26:07;94171.41;;;21.16;68.45
71107;BME280;58763;47.982;11.516;2023-06-22T02:28:32;94170.38;;;21.21;67.54
71107;BME280;58763;47.982;11.516;2023-06-22T02:30:58;94174.25;;;21.20;67.21
71107;BME280;58763;47.982;11.516;2023-06-22T02:33:23;94179.88;;;21.23;66.97
71107;BME280;58763;47.982;11.516;2023-06-22T02:35:49;94177.88;;;21.24;67.24
71107;BME280;58763;47.982;11.516;2023-06-22T02:38:14;94186.06;;;21.20;66.99
71107;BME280;58763;47.982;11.516;2023-06-22T02:40:40;94187.38;;;21.11;67.33
71107;BME280;58763;47.982;11.516;2023-06-22T02:43:06;94188.41;;;21.06;67.04
71107;BME280;58763;47.982;11.516;2023-06-22T02:45:31;94193.00;;;21.02;66.77
71107;BME280;58763;47.982;11.516;2023-06-22T02:47:57;94196.53;;;21.03;66.79
71107;BME280;58763;47.982;11.516;2023-06-22T02:50:22;94194.41;;;20.84;67.39
71107;BME280;58763;47.982;11.516;2023-06-22T02:52:48;94195.34;;;20.88;67.03
71107;BME280;58763;47.982;11.516;2023-06-22T02:55:13;94199.25;;;20.75;67.46
71107;BME280;58763;47.982;11.516;2023-06-22T02:57:39;94195.59;;;20.83;67.73
71107;BME280;58763;47.982;11.516;2023-06-22T03:00:09;94189.63;;;20.81;67.69
71107;BME280;58763;47.982;11.516;2023-06-22T03:02:47;94195.13;;;20.81;67.86
71107;BME280;58763;47.982;11.516;2023-06-22T03:05:16;94203.63;;;20.76;67.52
71107;BME280;58763;47.982;11.516;2023-06-22T03:07:44;94206.38;;;20.76;67.31
71107;BME280;58763;47.982;11.516;2023-06-22T03:10:10;94198.00;;;20.73;67.75
71107;BME280;58763;47.982;11.516;2023-06-22T03:12:40;94183.00;;;20.70;67.71
71107;BME280;58763;47.982;11.516;2023-06-22T03:15:07;94185.53;;;20.75;68.25
71107;BME280;58763;47.982;11.516;2023-06-22T03:17:34;94183.22;;;20.77;68.54
71107;BME280;58763;47.982;11.516;2023-06-22T03:20:01;94185.06;;;20.73;68.34
71107;BME280;58763;47.982;11.516;2023-06-22T03:22:26;94186.13;;;20.68;68.69
71107;BME280;58763;47.982;11.516;2023-06-22T03:24:52;94176.28;;;20.67;69.18
71107;BME280;58763;47.982;11.516;2023-06-22T03:27:17;94186.03;;;20.65;69.43
71107;BME280;58763;47.982;11.516;2023-06-22T03:29:43;94173.91;;;20.54;69.75
71107;BME280;58763;47.982;11.516;2023-06-22T03:32:10;94174.88;;;20.46;70.00
71107;BME280;58763;47.982;11.516;2023-06-22T03:34:35;94177.00;;;20.52;70.28
71107;BME280;58763;47.982;11.516;2023-06-22T03:37:04;94173.38;;;20.48;70.43
71107;BME280;58763;47.982;11.516;2023-06-22T03:39:29;94176.72;;;20.42;70.67
71107;BME280;58763;47.982;11.516;2023-06-22T03:41:55;94175.09;;;20.41;70.86
71107;BME280;58763;47.982;11.516;2023-06-22T03:44:20;94177.59;;;20.46;70.52
71107;BME280;58763;47.982;11.516;2023-06-22T03:46:45;94187.09;;;20.48;70.65
71107;BME280;58763;47.982;11.516;2023-06-22T03:49:11;94185.50;;;20.47;71.08
71107;BME280;58763;47.982;11.516;2023-06-22T03:51:36;94177.03;;;20.40;71.30
71107;BME280;58763;47.982;11.516;2023-06-22T03:54:02;94176.50;;;20.35;71.75
71107;BME280;58763;47.982;11.516;2023-06-22T03:56:27;94184.03;;;20.38;71.69
71107;BME280;58763;47.982;11.516;2023-06-22T03:58:53;94195.00;;;20.38;72.12
71107;BME280;58763;47.982;11.516;2023-06-22T04:01:18;94195.00;;;20.38;72.29
71107;BME280;58763;47.982;11.516;2023-06-22T04:03:44;94191.50;;;20.37;72.40
71107;BME280;58763;47.982;11.516;2023-06-22T04:06:10;94198.91;;;20.37;72.83
71107;BME280;58763;47.982;11.516;2023-06-22T04:08:36;94193.75;;;20.35;72.67
71107;BME280;58763;47.982;11.516;2023-06-22T04:11:01;94192.97;;;20.35;72.77
71107;BME280;58763;47.982;11.516;2023-06-22T04:13:26;94193.44;;;20.25;73.34
71107;BME280;58763;47.982;11.516;2023-06-22T04:15:52;94187.78;;;20.21;73.59
71107;BME280;58763;47.982;11.516;2023-06-22T04:18:17;94196.38;;;20.20;73.82
71107;BME280;58763;47.982;11.516;2023-06-22T04:20:43;94196.16;;;20.13;74.28
71107;BME280;58763;47.982;11.516;2023-06-22T04:23:12;94198.91;;;20.13;74.21
71107;BME280;58763;47.982;11.516;2023-06-22T04:25:38;94202.47;;;20.13;74.17
71107;BME280;58763;47.982;11.516;2023-06-22T04:28:04;94205.75;;;20.19;74.00
71107;BME280;58763;47.982;11.516;2023-06-22T04:30:29;94202.56;;;20.29;73.96
71107;BME280;58763;47.982;11.516;2023-06-22T04:32:57;94196.03;;;20.33;73.33
71107;BME280;58763;47.982;11.516;2023-06-22T04:35:25;94197.66;;;20.46;73.21
71107;BME280;58763;47.982;11.516;2023-06-22T04:37:52;94196.81;;;20.58;72.82
71107;BME280;58763;47.982;11.516;2023-06-22T04:40:23;94195.66;;;20.59;73.04
71107;BME280;58763;47.982;11.516;2023-06-22T04:42:49;94201.50;;;20.57;72.86
71107;BME280;58763;47.982;11.516;2023-06-22T04:45:20;94199.06;;;20.68;72.60
71107;BME280;58763;47.982;11.516;2023-06-22T04:47:46;94199.25;;;20.75;72.14
71107;BME280;58763;47.982;11.516;2023-06-22T04:50:12;94185.53;;;20.75;71.86
71107;BME280;58763;47.982;11.516;2023-06-22T04:52:37;94190.31;;;20.78;72.33
71107;BME280;58763;47.982;11.516;2023-06-22T04:55:04;94193.66;;;20.84;72.07
71107;BME280;58763;47.982;11.516;2023-06-22T04:57:30;94191.94;;;20.79;72.17
71107;BME280;58763;47.982;11.516;2023-06-22T04:59:59;94194.63;;;20.91;72.04
71107;BME280;58763;47.982;11.516;2023-06-22T05:02:40;94187.09;;;20.88;72.01
71107;BME280;58763;47.982;11.516;2023-06-22T05:05:06;94188.34;;;20.91;72.01
71107;BME280;58763;47.982;11.516;2023-06-22T05:07:35;94190.81;;;20.96;72.11
71107;BME280;58763;47.982;11.516;2023-06-22T05:10:02;94187.75;;;20.97;71.99
71107;BME280;58763;47.982;11.516;2023-06-22T05:12:29;94189.25;;;20.95;71.83
71107;BME280;58763;47.982;11.516;2023-06-22T05:14:55;94187.06;;;21.00;72.04
71107;BME280;58763;47.982;11.516;2023-06-22T05:17:20;94188.19;;;20.99;72.13
71107;BME280;58763;47.982;11.516;2023-06-22T05:19:46;94171.25;;;20.97;72.10
71107;BME280;58763;47.982;11.516;2023-06-22T05:22:16;94175.69;;;21.02;72.01
71107;BME280;58763;47.982;11.516;2023-06-22T05:24:42;94178.44;;;21.02;72.25
71107;BME280;58763;47.982;11.516;2023-06-22T05:27:09;94174.00;;;20.97;72.18
71107;BME280;58763;47.982;11.516;2023-06-22T05:29:34;94180.53;;;20.93;72.81
71107;BME280;58763;47.982;11.516;2023-06-22T05:32:00;94174.84;;;20.86;73.21
71107;BME280;58763;47.982;11.516;2023-06-22T05:34:26;94171.06;;;20.90;73.13
71107;BME280;58763;47.982;11.516;2023-06-22T05:36:51;94176.44;;;20.87;73.48
71107;BME280;58763;47.982;11.516;2023-06-22T05:39:17;94178.13;;;20.91;73.54
71107;BME280;58763;47.982;11.516;2023-06-22T05:41:44;94176.06;;;21.00;73.36
71107;BME280;58763;47.982;11.516;2023-06-22T05:44:09;94173.88;;;21.06;72.99
71107;BME280;58763;47.982;11.516;2023-06-22T05:46:35;94178.50;;;21.17;72.84
71107;BME280;58763;47.982;11.516;2023-06-22T05:49:00;94180.19;;;21.22;72.67
71107;BME280;58763;47.982;11.516;2023-06-22T05:51:26;94187.94;;;21.32;72.89
71107;BME280;58763;47.982;11.516;2023-06-22T05:53:52;94181.94;;;21.42;72.27
71107;BME280;58763;47.982;11.516;2023-06-22T05:56:18;94187.94;;;21.48;71.87
71107;BME280;58763;47.982;11.516;2023-06-22T05:58:43;94180.88;;;21.62;71.32
71107;BME280;58763;47.982;11.516;2023-06-22T06:01:09;94178.84;;;21.75;70.81
71107;BME280;58763;47.982;11.516;2023-06-22T06:03:34;94179.56;;;21.87;70.68
71107;BME280;58763;47.982;11.516;2023-06-22T06:06:08;94177.84;;;22.14;70.58
71107;BME280;58763;47.982;11.516;2023-06-22T06:08:36;94173.19;;;22.34;70.03
71107;BME280;58763;47.982;11.516;2023-06-22T06:11:02;94178.72;;;22.53;68.46
71107;BME280;58763;47.982;11.516;2023-06-22T06:13:27;94173.56;;;22.67;67.54
71107;BME280;58763;47.982;11.516;2023-06-22T06:15:53;94173.66;;;22.71;66.55
71107;BME280;58763;47.982;11.516;2023-06-22T06:18:20;94173.22;;;22.88;67.26
71107;BME280;58763;47.982;11.516;2023-06-22T06:20:46;94177.88;;;23.03;67.01
71107;BME280;58763;47.982;11.516;2023-06-22T06:23:11;94157.78;;;23.25;66.00
71107;BME280;58763;47.982;11.516;2023-06-22T06:25:37;94161.22;;;23.38;65.03
71107;BME280;58763;47.982;11.516;2023-06-22T06:28:02;94166.50;;;23.46;64.36
71107;BME280;58763;47.982;11.516;2023-06-22T06:30:28;94155.97;;;23.52;64.71
71107;BME280;58763;47.982;11.516;2023-06-22T06:32:54;94159.91;;;23.73;64.47
71107;BME280;58763;47.982;11.516;2023-06-22T06:35:19;94164.06;;;23.86;63.25
71107;BME280;58763;47.982;11.516;2023-06-22T06:37:48;94159.19;;;24.02;63.09
71107;BME280;58763;47.982;11.516;2023-06-22T06:40:15;94160.25;;;24.17;62.73
71107;BME280;58763;47.982;11.516;2023-06-22T06:42:48;94160.47;;;24.31;63.07
71107;BME280;58763;47.982;11.516;2023-06-22T06:45:19;94159.13;;;24.48;62.15
71107;BME280;58763;47.982;11.516;2023-06-22T06:47:45;94157.59;;;24.50;62.24
71107;BME280;58763;47.982;11.516;2023-06-22T06:50:10;94159.75;;;24.64;61.39
71107;BME280;58763;47.982;11.516;2023-06-22T06:52:37;94160.81;;;24.56;60.99
71107;BME280;58763;47.982;11.516;2023-06-22T06:55:03;94164.69;;;24.51;61.47
71107;BME280;58763;47.982;11.516;2023-06-22T06:57:36;94161.06;;;24.73;61.04
71107;BME280;58763;47.982;11.516;2023-06-22T07:00:04;94166.81;;;24.88;60.58
71107;BME280;58763;47.982;11.516;2023-06-22T07:02:35;94163.75;;;24.96;59.68
71107;BME280;58763;47.982;11.516;2023-06-22T07:05:00;94168.66;;;25.10;59.25
71107;BME280;58763;47.982;11.516;2023-06-22T07:07:29;94165.56;;;25.15;59.18
71107;BME280;58763;47.982;11.516;2023-06-22T07:09:55;94166.53;;;25.29;58.97
71107;BME280;58763;47.982;11.516;2023-06-22T07:12:20;94169.50;;;25.44;58.68
71107;BME280;58763;47.982;11.516;2023-06-22T07:14:46;94168.59;;;25.73;58.32
71107;BME280;58763;47.982;11.516;2023-06-22T07:17:12;94168.28;;;25.81;57.36
71107;BME280;58763;47.982;11.516;2023-06-22T07:19:37;94161.66;;;25.93;56.19
71107;BME280;58763;47.982;11.516;2023-06-22T07:22:03;94157.41;;;26.06;56.45
71107;BME280;58763;47.982;11.516;2023-06-22T07:24:28;94155.91;;;26.12;57.48
71107;BME280;58763;47.982;11.516;2023-06-22T07:26:54;94158.72;;;26.16;56.08
71107;BME280;58763;47.982;11.516;2023-06-22T07:29:20;94159.88;;;26.11;56.33
71107;BME280;58763;47.982;11.516;2023-06-22T07:31:50;94149.91;;;26.06;57.22
71107;BME280;58763;47.982;11.516;2023-06-22T07:34:16;94146.78;;;26.12;56.13
71107;BME280;58763;47.982;11.516;2023-06-22T07:36:43;94146.78;;;26.12;56.08
71107;BME280;58763;47.982;11.516;2023-06-22T07:39:08;94152.38;;;26.19;56.08
71107;BME280;58763;47.982;11.516;2023-06-22T07:41:34;94149.22;;;26.17;55.74
71107;BME280;58763;47.982;11.516;2023-06-22T07:43:59;94148.84;;;26.18;56.25
71107;BME280;58763;47.982;11.516;2023-06-22T07:46:24;94138.22;;;26.27;55.79
71107;BME280;58763;47.982;11.516;2023-06-22T07:48:50;94140.97;;;26.27;56.83
71107;BME280;58763;47.982;11.516;2023-06-22T07:51:15;94135.94;;;26.43;55.87
71107;BME280;58763;47.982;11.516;2023-06-22T07:53:43;94141.22;;;26.62;55.77
71107;BME280;58763;47.982;11.516;2023-06-22T07:56:12;94135.78;;;26.77;55.31
71107;BME280;58763;47.982;11.516;2023-06-22T07:58:38;94134.59;;;26.81;54.68
71107;BME280;58763;47.982;11.516;2023-06-22T08:01:04;94135.47;;;26.99;53.96
71107;BME280;58763;47.982;11.516;2023-06-22T08:03:29;94136.34;;;27.17;52.47
71107;BME280;58763;47.982;11.516;2023-06-22T08:05:55;94134.78;;;27.27;53.57
71107;BME280;58763;47.982;11.516;2023-06-22T08:08:21;94143.22;;;27.55;52.26
71107;BME280;58763;47.982;11.516;2023-06-22T08:10:46;94132.53;;;27.64;52.25
71107;BME280;58763;47.982;11.516;2023-06-22T08:13:11;94128.97;;;27.67;51.66
71107;BME280;58763;47.982;11.516;2023-06-22T08:15:37;94137.31;;;27.78;52.20
71107;BME280;58763;47.982;11.516;2023-06-22T08:18:02;94134.91;;;27.62;50.55
71107;BME280;58763;47.982;11.516;2023-06-22T08:20:28;94135.34;;;27.85;51.15
71107;BME280;58763;47.982;11.516;2023-06-22T08:22:55;94140.94;;;27.99;50.09
71107;BME280;58763;47.982;11.516;2023-06-22T08:25:20;94135.78;;;28.16;48.44
71107;BME280;58763;47.982;11.516;2023-06-22T08:27:47;94133.38;;;28.25;48.59
71107;BME280;58763;47.982;11.516;2023-06-22T08:30:16;94132.59;;;28.35;49.04
71107;BME280;58763;47.982;11.516;2023-06-22T08:32:42;94131.38;;;28.39;50.16
71107;BME280;58763;47.982;11.516;2023-06-22T08:35:08;94140.94;;;28.28;49.86
71107;BME280;58763;47.982;11.516;2023-06-22T08:37:34;94129.38;;;28.50;47.87
71107;BME280;58763;47.982;11.516;2023-06-22T08:40:01;94129.00;;;28.52;48.21
71107;BME280;58763;47.982;11.516;2023-06-22T08:42:28;94125.41;;;28.72;46.79
71107;BME280;58763;47.982;11.516;2023-06-22T08:44:53;94123.38;;;28.84;46.82
71107;BME280;58763;47.982;11.516;2023-06-22T08:47:19;94121.38;;;28.91;46.20
71107;BME280;58763;47.982;11.516;2023-06-22T08:49:45;94117.75;;;28.94;46.06
71107;BME280;58763;47.982;11.516;2023-06-22T08:52:11;94122.50;;;29.04;47.04
71107;BME280;58763;47.982;11.516;2023-06-22T08:54:36;94125.22;;;29.25;46.05
71107;BME280;58763;47.982;11.516;2023-06-22T08:57:02;94129.16;;;29.31;44.67
71107;BME280;58763;47.982;11.516;2023-06-22T08:59:28;94125.97;;;29.40;44.63
71107;BME280;58763;47.982;11.516;2023-06-22T09:01:53;94120.31;;;29.51;44.27
71107;BME280;58763;47.982;11.516;2023-06-22T09:04:19;94112.28;;;29.63;44.22
71107;BME280;58763;47.982;11.516;2023-06-22T09:06:47;94120.19;;;29.75;43.82
71107;BME280;58763;47.982;11.516;2023-06-22T09:09:13;94120.53;;;29.84;43.66
71107;BME280;58763;47.982;11.516;2023-06-22T09:11:39;94123.66;;;29.90;43.27
71107;BME280;58763;47.982;11.516;2023-06-22T09:14:05;94119.53;;;30.12;43.50
71107;BME280;58763;47.982;11.516;2023-06-22T09:16:31;94117.38;;;30.30;44.01
71107;BME280;58763;47.982;11.516;2023-06-22T09:18:57;94126.00;;;30.50;43.38
71107;BME280;58763;47.982;11.516;2023-06-22T09:21:23;94117.66;;;30.46;42.49
71107;BME280;58763;47.982;11.516;2023-06-22T09:23:51;94116.53;;;30.37;43.21
71107;BME280;58763;47.982;11.516;2023-06-22T09:26:22;94108.81;;;30.55;43.54
71107;BME280;58763;47.982;11.516;2023-06-22T09:28:49;94123.47;;;30.62;42.53
71107;BME280;58763;47.982;11.516;2023-06-22T09:31:14;94116.25;;;30.68;42.69
71107;BME280;58763;47.982;11.516;2023-06-22T09:33:41;94115.25;;;30.89;42.88
71107;BME280;58763;47.982;11.516;2023-06-22T09:36:07;94108.22;;;31.11;41.72
71107;BME280;58763;47.982;11.516;2023-06-22T09:38:39;94098.53;;;31.19;40.31
71107;BME280;58763;47.982;11.516;2023-06-22T09:41:05;94101.97;;;31.30;40.45
71107;BME280;58763;47.982;11.516;2023-06-22T09:43:31;94102.63;;;31.45;39.81
71107;BME280;58763;47.982;11.516;2023-06-22T09:45:57;94101.97;;;31.64;40.22
71107;BME280;58763;47.982;11.516;2023-06-22T09:48:22;94095.00;;;31.76;39.22
71107;BME280;58763;47.982;11.516;2023-06-22T09:50:47;94093.09;;;31.96;38.53
71107;BME280;58763;47.982;11.516;2023-06-22T09:53:13;94097.69;;;32.09;37.55
71107;BME280;58763;47.982;11.516;2023-06-22T09:55:38;94089.97;;;32.17;38.26
71107;BME280;58763;47.982;11.516;2023-06-22T09:58:04;94093.94;;;32.20;39.20
71107;BME280;58763;47.982;11.516;2023-06-22T10:00:29;94082.25;;;32.48;38.04
71107;BME280;58763;47.982;11.516;2023-06-22T10:02:55;94081.53;;;32.67;38.12
71107;BME280;58763;47.982;11.516;2023-06-22T10:05:21;94080.66;;;32.70;37.65
71107;BME280;58763;47.982;11.516;2023-06-22T10:07:47;94077.81;;;32.93;37.64
71107;BME280;58763;47.982;11.516;2023-06-22T10:10:12;94076.84;;;33.03;37.08
71107;BME280;58763;47.982;11.516;2023-06-22T10:12:43;94073.25;;;33.22;37.29
71107;BME280;58763;47.982;11.516;2023-06-22T10:15:09;94062.19;;;33.35;37.09
71107;BME280;58763;47.982;11.516;2023-06-22T10:17:35;94074.97;;;33.56;36.47
71107;BME280;58763;47.982;11.516;2023-06-22T10:20:00;94069.09;;;33.66;35.90
71107;BME280;58763;47.982;11.516;2023-06-22T10:22:41;94077.66;;;33.79;35.61
71107;BME280;58763;47.982;11.516;2023-06-22T10:25:07;94065.63;;;33.78;35.78
71107;BME280;58763;47.982;11.516;2023-06-22T10:27:33;94063.72;;;33.91;35.52
71107;BME280;58763;47.982;11.516;2023-06-22T10:29:59;94065.97;;;34.16;35.09
71107;BME280;58763;47.982;11.516;2023-06-22T10:32:24;94066.66;;;34.36;34.42
71107;BME280;58763;47.982;11.516;2023-06-22T10:34:50;94066.81;;;34.45;34.43
71107;BME280;58763;47.982;11.516;2023-06-22T10:37:15;94067.00;;;34.54;33.81
71107;BME280;58763;47.982;11.516;2023-06-22T10:39:41;94065.44;;;34.53;34.29
71107;BME280;58763;47.982;11.516;2023-06-22T10:42:07;94058.56;;;34.38;34.69
71107;BME280;58763;47.982;11.516;2023-06-22T10:44:32;94060.78;;;34.63;33.91
71107;BME280;58763;47.982;11.516;2023-06-22T10:46:58;94049.91;;;34.78;34.28
71107;BME280;58763;47.982;11.516;2023-06-22T10:49:23;94055.41;;;34.97;33.97
71107;BME280;58763;47.982;11.516;2023-06-22T10:51:49;94056.97;;;35.14;34.29
71107;BME280;58763;47.982;11.516;2023-06-22T10:54:14;94042.28;;;35.35;33.39
71107;BME280;58763;47.982;11.516;2023-06-22T10:56:42;94046.06;;;35.29;32.78
71107;BME280;58763;47.982;11.516;2023-06-22T10:59:07;94044.63;;;34.96;33.15
71107;BME280;58763;47.982;11.516;2023-06-22T11:01:33;94054.59;;;34.97;33.17
71107;BME280;58763;47.982;11.516;2023-06-22T11:03:58;94039.94;;;34.77;34.22
71107;BME280;58763;47.982;11.516;2023-06-22T11:06:24;94043.34;;;34.84;34.11
71107;BME280;58763;47.982;11.516;2023-06-22T11:08:49;94040.56;;;34.97;33.34
71107;BME280;58763;47.982;11.516;2023-06-22T11:11:15;94043.81;;;34.95;32.43
71107;BME280;58763;47.982;11.516;2023-06-22T11:13:43;94042.88;;;34.86;32.26
71107;BME280;58763;47.982;11.516;2023-06-22T11:16:10;94035.09;;;34.77;32.85
71107;BME280;58763;47.982;11.516;2023-06-22T11:18:35;94039.25;;;34.72;33.27
71107;BME280;58763;47.982;11.516;2023-06-22T11:21:01;94042.75;;;34.77;33.19
71107;BME280;58763;47.982;11.516;2023-06-22T11:23:26;94038.47;;;35.01;33.26
71107;BME280;58763;47.982;11.516;2023-06-22T11:25:53;94043.56;;;34.90;31.12
71107;BME280;58763;47.982;11.516;2023-06-22T11:28:18;94034.56;;;35.11;31.71
71107;BME280;58763;47.982;11.516;2023-06-22T11:30:44;94034.06;;;35.41;31.50
71107;BME280;58763;47.982;11.516;2023-06-22T11:33:10;94028.03;;;35.55;31.41
71107;BME280;58763;47.982;11.516;2023-06-22T11:35:35;94028.25;;;35.73;30.82
71107;BME280;58763;47.982;11.516;2023-06-22T11:38:00;94022.22;;;35.75;29.76
71107;BME280;58763;47.982;11.516;2023-06-22T11:40:27;94023.09;;;35.72;29.52
71107;BME280;58763;47.982;11.516;2023-06-22T11:42:53;94019.94;;;35.70;29.31
71107;BME280;58763;47.982;11.516;2023-06-22T11:45:18;94012.31;;;35.70;29.29
71107;BME280;58763;47.982;11.516;2023-06-22T11:47:44;94000.03;;;35.89;28.98
71107;BME280;58763;47.982;11.516;2023-06-22T11:50:13;94008.16;;;36.13;28.98
71107;BME280;58763;47.982;11.516;2023-06-22T11:52:38;94007.53;;;36.18;27.79
71107;BME280;58763;47.982;11.516;2023-06-22T11:55:05;94000.22;;;36.20;27.93
71107;BME280;58763;47.982;11.516;2023-06-22T11:57:36;94005.25;;;36.38;28.01
71107;BME280;58763;47.982;11.516;2023-06-22T12:00:03;94002.56;;;36.47;27.98
71107;BME280;58763;47.982;11.516;2023-06-22T12:02:41;93996.34;;;36.52;28.16
71107;BME280;58763;47.982;11.516;2023-06-22T12:05:07;93996.44;;;36.61;27.28
71107;BME280;58763;47.982;11.516;2023-06-22T12:07:33;93991.03;;;36.54;27.50
71107;BME280;58763;47.982;11.516;2023-06-22T12:09:58;93990.72;;;36.39;27.87
71107;BME280;58763;47.982;11.516;2023-06-22T12:12:24;93978.88;;;36.44;27.48
71107;BME280;58763;47.982;11.516;2023-06-22T12:14:49;93986.06;;;36.58;27.85
71107;BME280;58763;47.982;11.516;2023-06-22T12:17:15;93984.91;;;36.68;27.92
71107;BME280;58763;47.982;11.516;2023-06-22T12:19:40;93977.72;;;36.89;27.79
71107;BME280;58763;47.982;11.516;2023-06-22T12:22:06;93971.25;;;37.01;27.34
71107;BME280;58763;47.982;11.516;2023-06-22T12:24:31;93959.81;;;37.04;27.16
71107;BME280;58763;47.982;11.516;2023-06-22T12:26:56;93962.66;;;37.04;26.98
71107;BME280;58763;47.982;11.516;2023-06-22T12:29:22;93954.06;;;37.08;26.97
71107;BME280;58763;47.982;11.516;2023-06-22T12:31:47;93956.09;;;37.07;26.87
71107;BME280;58763;47.982;11.516;2023-06-22T12:34:13;93949.16;;;36.99;27.09
71107;BME280;58763;47.982;11.516;2023-06-22T12:36:38;93935.72;;;37.03;26.50
71107;BME280;58763;47.982;11.516;2023-06-22T12:39:04;93945.34;;;37.15;27.27
71107;BME280;58763;47.982;11.516;2023-06-22T12:41:29;93951.78;;;37.15;27.08
71107;BME280;58763;47.982;11.516;2023-06-22T12:43:55;93944.63;;;37.32;27.18
71107;BME280;58763;47.982;11.516;2023-06-22T12:46:20;93939.44;;;37.22;26.60
71107;BME280;58763;47.982;11.516;2023-06-22T12:48:45;93946.91;;;37.37;26.30
71107;BME280;58763;47.982;11.516;2023-06-22T12:51:11;93937.19;;;37.38;26.58